createdAt,value
2023-05-28T00:00:19.589Z,478.00
2023-05-28T00:01:20.021Z,478.00
2023-05-28T00:02:19.001Z,478.00
2023-05-28T00:03:19.223Z,475.00
2023-05-28T00:04:19.142Z,477.00
2023-05-28T00:05:18.987Z,477.00
2023-05-28T00:06:18.942Z,476.00
2023-05-28T00:07:18.987Z,477.00
2023-05-28T00:08:18.955Z,477.00
2023-05-28T00:09:18.931Z,477.00
2023-05-28T00:10:18.925Z,479.00
2023-05-28T00:11:18.929Z,478.00
2023-05-28T00:12:18.911Z,481.00
2023-05-28T00:13:18.917Z,484.00
2023-05-28T00:14:18.921Z,484.00
2023-05-28T00:15:18.914Z,481.00
2023-05-28T00:16:18.935Z,481.00
2023-05-28T00:17:18.909Z,483.00
2023-05-28T00:18:18.871Z,482.00
2023-05-28T00:19:18.890Z,482.00
2023-05-28T00:20:18.900Z,480.00
2023-05-28T00:21:18.873Z,479.00
2023-05-28T00:22:18.820Z,477.00
2023-05-28T00:23:18.845Z,478.00
2023-05-28T00:24:18.912Z,480.00
2023-05-28T00:25:18.979Z,480.00
2023-05-28T00:26:19.032Z,478.00
2023-05-28T00:27:19.079Z,477.00
2023-05-28T00:28:19.148Z,476.00
2023-05-28T00:29:19.247Z,474.00
2023-05-28T00:30:19.311Z,473.00
2023-05-28T00:31:19.367Z,475.00
2023-05-28T00:32:19.421Z,478.00
2023-05-28T00:33:19.472Z,479.00
2023-05-28T00:34:19.507Z,479.00
2023-05-28T00:35:19.603Z,480.00
2023-05-28T00:36:20.596Z,477.00
2023-05-28T00:37:19.672Z,477.00
2023-05-28T00:38:19.768Z,476.00
2023-05-28T00:39:19.816Z,476.00
2023-05-28T00:40:19.907Z,475.00
2023-05-28T00:41:19.926Z,474.00
2023-05-28T00:42:19.994Z,475.00
2023-05-28T00:43:20.069Z,476.00
2023-05-28T00:44:20.101Z,477.00
2023-05-28T00:45:20.191Z,477.00
2023-05-28T00:46:20.370Z,477.00
2023-05-28T00:47:20.310Z,479.00
2023-05-28T00:48:20.399Z,477.00
2023-05-28T00:49:20.450Z,475.00
2023-05-28T00:50:20.489Z,474.00
2023-05-28T00:51:20.573Z,476.00
2023-05-28T00:52:20.622Z,476.00
2023-05-28T00:53:20.700Z,475.00
2023-05-28T00:54:21.580Z,474.00
2023-05-28T00:55:20.810Z,473.00
2023-05-28T00:56:21.118Z,475.00
2023-05-28T00:57:20.963Z,475.00
2023-05-28T00:58:21.013Z,476.00
2023-05-28T00:59:21.076Z,476.00
2023-05-28T01:00:21.123Z,476.00
2023-05-28T01:01:21.230Z,478.00
2023-05-28T01:02:21.397Z,478.00
2023-05-28T01:03:21.374Z,480.00
2023-05-28T01:04:22.329Z,479.00
2023-05-28T01:05:21.286Z,478.00
2023-05-28T01:06:21.294Z,480.00
2023-05-28T01:07:21.297Z,481.00
2023-05-28T01:08:21.291Z,480.00
2023-05-28T01:09:21.277Z,478.00
2023-05-28T01:10:21.261Z,479.00
2023-05-28T01:11:21.296Z,478.00
2023-05-28T01:12:21.250Z,479.00
2023-05-28T01:13:21.251Z,480.00
2023-05-28T01:14:21.241Z,479.00
2023-05-28T01:15:21.279Z,477.00
2023-05-28T01:16:21.414Z,479.00
2023-05-28T01:17:21.474Z,480.00
2023-05-28T01:18:21.460Z,481.00
2023-05-28T01:19:22.123Z,481.00
2023-05-28T01:20:21.630Z,483.00
2023-05-28T01:21:21.664Z,482.00
2023-05-28T01:22:21.765Z,483.00
2023-05-28T01:23:21.774Z,483.00
2023-05-28T01:24:21.879Z,482.00
2023-05-28T01:25:21.923Z,480.00
2023-05-28T01:26:21.969Z,478.00
2023-05-28T01:27:22.051Z,478.00
2023-05-28T01:28:22.086Z,477.00
2023-05-28T01:29:22.188Z,476.00
2023-05-28T01:30:22.241Z,478.00
2023-05-28T01:31:22.328Z,479.00
2023-05-28T01:32:22.377Z,480.00
2023-05-28T01:33:22.413Z,480.00
2023-05-28T01:34:22.471Z,482.00
2023-05-28T01:35:22.548Z,482.00
2023-05-28T01:36:22.592Z,481.00
2023-05-28T01:37:22.673Z,478.00
2023-05-28T01:38:24.419Z,479.00
2023-05-28T01:39:22.770Z,479.00
2023-05-28T01:40:22.842Z,481.00
2023-05-28T01:41:22.942Z,481.00
2023-05-28T01:42:22.957Z,482.00
2023-05-28T01:43:23.042Z,482.00
2023-05-28T01:44:23.084Z,482.00
2023-05-28T01:45:23.165Z,480.00
2023-05-28T01:46:23.247Z,478.00
2023-05-28T01:47:23.359Z,477.00
2023-05-28T01:48:23.331Z,476.00
2023-05-28T01:49:23.410Z,478.00
2023-05-28T01:50:23.460Z,477.00
2023-05-28T01:51:23.512Z,475.00
2023-05-28T01:52:23.578Z,474.00
2023-05-28T01:53:23.628Z,475.00
2023-05-28T01:54:24.626Z,478.00
2023-05-28T01:55:23.751Z,475.00
2023-05-28T01:56:23.824Z,473.00
2023-05-28T01:57:23.899Z,474.00
2023-05-28T01:58:23.935Z,473.00
2023-05-28T01:59:24.022Z,475.00
2023-05-28T02:00:24.050Z,476.00
2023-05-28T02:01:24.152Z,476.00
2023-05-28T02:02:24.179Z,476.00
2023-05-28T02:03:24.275Z,475.00
2023-05-28T02:04:24.279Z,476.00
2023-05-28T02:05:24.378Z,476.00
2023-05-28T02:06:24.437Z,477.00
2023-05-28T02:07:24.514Z,478.00
2023-05-28T02:08:24.564Z,477.00
2023-05-28T02:09:24.661Z,477.00
2023-05-28T02:10:24.704Z,478.00
2023-05-28T02:11:25.229Z,481.00
2023-05-28T02:12:24.812Z,484.00
2023-05-28T02:13:24.867Z,483.00
2023-05-28T02:14:24.932Z,481.00
2023-05-28T02:15:25.022Z,479.00
2023-05-28T02:16:25.202Z,476.00
2023-05-28T02:17:25.202Z,478.00
2023-05-28T02:18:25.194Z,477.00
2023-05-28T02:19:25.242Z,477.00
2023-05-28T02:20:25.396Z,476.00
2023-05-28T02:21:25.404Z,478.00
2023-05-28T02:22:25.465Z,478.00
2023-05-28T02:23:25.512Z,478.00
2023-05-28T02:24:25.583Z,481.00
2023-05-28T02:25:25.629Z,479.00
2023-05-28T02:26:25.700Z,479.00
2023-05-28T02:27:25.795Z,480.00
2023-05-28T02:28:25.833Z,478.00
2023-05-28T02:29:25.869Z,478.00
2023-05-28T02:30:25.905Z,477.00
2023-05-28T02:31:26.053Z,477.00
2023-05-28T02:32:26.035Z,473.00
2023-05-28T02:33:26.106Z,472.00
2023-05-28T02:34:26.176Z,471.00
2023-05-28T02:35:26.206Z,472.00
2023-05-28T02:36:26.296Z,474.00
2023-05-28T02:37:26.339Z,473.00
2023-05-28T02:38:26.359Z,472.00
2023-05-28T02:39:26.454Z,471.00
2023-05-28T02:40:26.589Z,473.00
2023-05-28T02:41:26.545Z,475.00
2023-05-28T02:42:26.595Z,475.00
2023-05-28T02:43:26.669Z,475.00
2023-05-28T02:44:26.717Z,474.00
2023-05-28T02:45:26.779Z,471.00
2023-05-28T02:46:26.955Z,470.00
2023-05-28T02:47:26.929Z,469.00
2023-05-28T02:48:26.972Z,468.00
2023-05-28T02:49:26.985Z,470.00
2023-05-28T02:50:27.058Z,473.00
2023-05-28T02:51:27.120Z,472.00
2023-05-28T02:52:27.158Z,472.00
2023-05-28T02:53:27.240Z,474.00
2023-05-28T02:54:27.263Z,474.00
2023-05-28T02:55:28.197Z,474.00
2023-05-28T02:56:28.160Z,474.00
2023-05-28T02:57:27.442Z,475.00
2023-05-28T02:58:27.491Z,477.00
2023-05-28T02:59:27.529Z,477.00
2023-05-28T03:00:27.618Z,479.00
2023-05-28T03:01:27.702Z,477.00
2023-05-28T03:02:27.793Z,477.00
2023-05-28T03:03:27.947Z,475.00
2023-05-28T03:04:27.866Z,475.00
2023-05-28T03:05:27.876Z,476.00
2023-05-28T03:06:27.956Z,479.00
2023-05-28T03:07:27.985Z,482.00
2023-05-28T03:08:28.077Z,484.00
2023-05-28T03:09:28.126Z,482.00
2023-05-28T03:10:28.158Z,481.00
2023-05-28T03:11:28.681Z,480.00
2023-05-28T03:12:28.266Z,477.00
2023-05-28T03:13:28.354Z,478.00
2023-05-28T03:14:28.375Z,478.00
2023-05-28T03:15:28.429Z,480.00
2023-05-28T03:16:28.504Z,482.00
2023-05-28T03:17:28.530Z,481.00
2023-05-28T03:18:28.549Z,482.00
2023-05-28T03:19:28.576Z,484.00
2023-05-28T03:20:28.650Z,485.00
2023-05-28T03:21:28.701Z,483.00
2023-05-28T03:22:28.669Z,479.00
2023-05-28T03:23:28.777Z,479.00
2023-05-28T03:24:28.877Z,478.00
2023-05-28T03:25:28.806Z,479.00
2023-05-28T03:26:28.893Z,481.00
2023-05-28T03:27:28.930Z,485.00
2023-05-28T03:28:28.967Z,485.00
2023-05-28T03:29:29.679Z,484.00
2023-05-28T03:30:29.017Z,485.00
2023-05-28T03:31:29.197Z,486.00
2023-05-28T03:32:29.120Z,484.00
2023-05-28T03:33:29.149Z,485.00
2023-05-28T03:34:29.190Z,489.00
2023-05-28T03:35:29.321Z,491.00
2023-05-28T03:36:29.276Z,489.00
2023-05-28T03:37:29.320Z,488.00
2023-05-28T03:38:29.370Z,486.00
2023-05-28T03:39:29.343Z,485.00
2023-05-28T03:40:29.384Z,483.00
2023-05-28T03:41:29.439Z,482.00
2023-05-28T03:42:29.482Z,481.00
2023-05-28T03:43:29.516Z,480.00
2023-05-28T03:44:29.564Z,479.00
2023-05-28T03:45:29.610Z,482.00
2023-05-28T03:46:29.692Z,481.00
2023-05-28T03:47:29.726Z,482.00
2023-05-28T03:48:29.760Z,479.00
2023-05-28T03:49:29.801Z,477.00
2023-05-28T03:50:29.853Z,477.00
2023-05-28T03:51:29.906Z,478.00
2023-05-28T03:52:29.957Z,478.00
2023-05-28T03:53:30.004Z,477.00
2023-05-28T03:54:30.040Z,479.00
2023-05-28T03:55:30.062Z,480.00
2023-05-28T03:56:30.148Z,477.00
2023-05-28T03:57:30.167Z,478.00
2023-05-28T03:58:30.207Z,477.00
2023-05-28T03:59:30.238Z,476.00
2023-05-28T04:00:30.241Z,473.00
2023-05-28T04:01:30.303Z,473.00
2023-05-28T04:02:30.384Z,473.00
2023-05-28T04:03:30.478Z,474.00
2023-05-28T04:04:30.536Z,473.00
2023-05-28T04:05:30.436Z,474.00
2023-05-28T04:06:30.490Z,476.00
2023-05-28T04:07:30.495Z,479.00
2023-05-28T04:08:30.473Z,479.00
2023-05-28T04:09:30.582Z,479.00
2023-05-28T04:10:30.560Z,480.00
2023-05-28T04:11:30.566Z,478.00
2023-05-28T04:12:30.600Z,477.00
2023-05-28T04:13:30.598Z,476.00
2023-05-28T04:14:30.611Z,475.00
2023-05-28T04:15:30.652Z,476.00
2023-05-28T04:16:30.777Z,479.00
2023-05-28T04:17:30.730Z,480.00
2023-05-28T04:18:30.725Z,479.00
2023-05-28T04:19:30.779Z,480.00
2023-05-28T04:20:30.864Z,482.00
2023-05-28T04:21:30.832Z,484.00
2023-05-28T04:22:30.839Z,486.00
2023-05-28T04:23:30.837Z,485.00
2023-05-28T04:24:30.882Z,486.00
2023-05-28T04:25:30.880Z,485.00
2023-05-28T04:26:30.911Z,486.00
2023-05-28T04:27:30.950Z,486.00
2023-05-28T04:28:30.942Z,485.00
2023-05-28T04:29:30.977Z,488.00
2023-05-28T04:30:31.011Z,486.00
2023-05-28T04:31:31.084Z,486.00
2023-05-28T04:32:31.053Z,484.00
2023-05-28T04:33:31.036Z,483.00
2023-05-28T04:34:31.087Z,480.00
2023-05-28T04:35:31.093Z,479.00
2023-05-28T04:36:31.246Z,478.00
2023-05-28T04:37:31.110Z,476.00
2023-05-28T04:38:31.176Z,477.00
2023-05-28T04:39:31.174Z,480.00
2023-05-28T04:40:31.215Z,478.00
2023-05-28T04:41:31.717Z,477.00
2023-05-28T04:42:31.272Z,478.00
2023-05-28T04:43:31.292Z,477.00
2023-05-28T04:44:31.322Z,479.00
2023-05-28T04:45:31.327Z,478.00
2023-05-28T04:46:31.739Z,479.00
2023-05-28T04:47:31.401Z,480.00
2023-05-28T04:48:31.355Z,479.00
2023-05-28T04:49:31.356Z,477.00
2023-05-28T04:50:31.465Z,478.00
2023-05-28T04:51:31.770Z,477.00
2023-05-28T04:52:31.463Z,480.00
2023-05-28T04:53:31.473Z,483.00
2023-05-28T04:54:31.491Z,484.00
2023-05-28T04:55:31.512Z,483.00
2023-05-28T04:56:31.736Z,482.00
2023-05-28T04:57:31.513Z,481.00
2023-05-28T04:58:32.234Z,481.00
2023-05-28T04:59:31.584Z,481.00
2023-05-28T05:00:31.588Z,479.00
2023-05-28T05:01:31.650Z,475.00
2023-05-28T05:02:31.645Z,476.00
2023-05-28T05:03:31.668Z,478.00
2023-05-28T05:04:31.672Z,478.00
2023-05-28T05:05:31.631Z,479.00
2023-05-28T05:06:31.665Z,478.00
2023-05-28T05:07:31.602Z,478.00
2023-05-28T05:08:31.592Z,478.00
2023-05-28T05:09:31.679Z,478.00
2023-05-28T05:10:31.598Z,479.00
2023-05-28T05:11:31.584Z,478.00
2023-05-28T05:12:31.603Z,476.00
2023-05-28T05:13:31.568Z,477.00
2023-05-28T05:14:31.574Z,476.00
2023-05-28T05:15:31.584Z,477.00
2023-05-28T05:16:31.632Z,476.00
2023-05-28T05:17:31.615Z,474.00
2023-05-28T05:18:31.554Z,474.00
2023-05-28T05:19:31.552Z,475.00
2023-05-28T05:20:31.596Z,478.00
2023-05-28T05:21:31.770Z,477.00
2023-05-28T05:22:31.533Z,481.00
2023-05-28T05:23:31.550Z,479.00
2023-05-28T05:24:31.547Z,477.00
2023-05-28T05:25:31.528Z,477.00
2023-05-28T05:26:31.517Z,475.00
2023-05-28T05:27:31.551Z,476.00
2023-05-28T05:28:31.501Z,476.00
2023-05-28T05:29:31.513Z,475.00
2023-05-28T05:30:31.514Z,476.00
2023-05-28T05:31:31.589Z,478.00
2023-05-28T05:32:31.532Z,479.00
2023-05-28T05:33:31.516Z,479.00
2023-05-28T05:34:31.509Z,479.00
2023-05-28T05:35:31.516Z,479.00
2023-05-28T05:36:31.497Z,480.00
2023-05-28T05:37:31.516Z,480.00
2023-05-28T05:38:31.475Z,480.00
2023-05-28T05:39:31.487Z,481.00
2023-05-28T05:40:31.506Z,481.00
2023-05-28T05:41:31.497Z,482.00
2023-05-28T05:42:31.465Z,481.00
2023-05-28T05:43:31.487Z,481.00
2023-05-28T05:44:31.471Z,482.00
2023-05-28T05:45:31.510Z,482.00
2023-05-28T05:46:31.581Z,484.00
2023-05-28T05:47:31.472Z,488.00
2023-05-28T05:48:31.494Z,489.00
2023-05-28T05:49:31.478Z,487.00
2023-05-28T05:50:31.461Z,485.00
2023-05-28T05:51:31.770Z,484.00
2023-05-28T05:52:31.458Z,482.00
2023-05-28T05:53:31.441Z,482.00
2023-05-28T05:54:31.448Z,481.00
2023-05-28T05:55:31.468Z,481.00
2023-05-28T05:56:31.764Z,481.00
2023-05-28T05:57:31.473Z,481.00
2023-05-28T05:58:31.447Z,481.00
2023-05-28T05:59:31.453Z,482.00
2023-05-28T06:00:31.460Z,484.00
2023-05-28T06:01:31.456Z,485.00
2023-05-28T06:02:31.600Z,486.00
2023-05-28T06:03:31.547Z,485.00
2023-05-28T06:04:31.477Z,485.00
2023-05-28T06:05:31.456Z,484.00
2023-05-28T06:06:31.464Z,485.00
2023-05-28T06:07:31.425Z,484.00
2023-05-28T06:08:31.432Z,483.00
2023-05-28T06:09:31.446Z,484.00
2023-05-28T06:10:31.416Z,486.00
2023-05-28T06:11:31.452Z,486.00
2023-05-28T06:12:31.511Z,485.00
2023-05-28T06:13:31.513Z,484.00
2023-05-28T06:14:31.526Z,485.00
2023-05-28T06:15:31.523Z,486.00
2023-05-28T06:16:31.573Z,484.00
2023-05-28T06:17:31.657Z,485.00
2023-05-28T06:18:31.510Z,485.00
2023-05-28T06:19:31.532Z,484.00
2023-05-28T06:20:31.594Z,484.00
2023-05-28T06:21:31.568Z,485.00
2023-05-28T06:22:31.594Z,487.00
2023-05-28T06:23:31.565Z,489.00
2023-05-28T06:24:31.585Z,490.00
2023-05-28T06:25:31.573Z,490.00
2023-05-28T06:26:31.588Z,490.00
2023-05-28T06:27:31.637Z,491.00
2023-05-28T06:28:31.602Z,491.00
2023-05-28T06:29:31.612Z,490.00
2023-05-28T06:30:31.594Z,488.00
2023-05-28T06:31:31.759Z,487.00
2023-05-28T06:32:31.610Z,486.00
2023-05-28T06:33:31.584Z,487.00
2023-05-28T06:34:31.584Z,485.00
2023-05-28T06:35:31.628Z,485.00
2023-05-28T06:36:31.635Z,486.00
2023-05-28T06:37:31.635Z,483.00
2023-05-28T06:38:31.659Z,483.00
2023-05-28T06:39:31.650Z,483.00
2023-05-28T06:40:31.658Z,481.00
2023-05-28T06:41:31.642Z,481.00
2023-05-28T06:42:31.677Z,483.00
2023-05-28T06:43:31.637Z,483.00
2023-05-28T06:44:31.644Z,484.00
2023-05-28T06:45:31.670Z,483.00
2023-05-28T06:46:31.707Z,482.00
2023-05-28T06:47:31.723Z,481.00
2023-05-28T06:48:31.710Z,480.00
2023-05-28T06:49:31.725Z,479.00
2023-05-28T06:50:31.742Z,477.00
2023-05-28T06:51:31.815Z,477.00
2023-05-28T06:52:31.711Z,476.00
2023-05-28T06:53:31.749Z,477.00
2023-05-28T06:54:31.763Z,480.00
2023-05-28T06:55:31.757Z,479.00
2023-05-28T06:56:31.768Z,479.00
2023-05-28T06:57:31.800Z,482.00
2023-05-28T06:58:31.788Z,480.00
2023-05-28T06:59:31.793Z,482.00
2023-05-28T07:00:31.807Z,481.00
2023-05-28T07:01:31.812Z,482.00
2023-05-28T07:02:31.848Z,481.00
2023-05-28T07:03:31.815Z,482.00
2023-05-28T07:04:31.802Z,481.00
2023-05-28T07:05:31.886Z,481.00
2023-05-28T07:06:31.809Z,478.00
2023-05-28T07:07:31.778Z,476.00
2023-05-28T07:08:31.784Z,475.00
2023-05-28T07:09:31.790Z,475.00
2023-05-28T07:10:31.792Z,475.00
2023-05-28T07:11:31.804Z,475.00
2023-05-28T07:12:31.775Z,478.00
2023-05-28T07:13:31.764Z,479.00
2023-05-28T07:14:31.744Z,480.00
2023-05-28T07:15:31.767Z,480.00
2023-05-28T07:16:31.930Z,481.00
2023-05-28T07:17:31.832Z,481.00
2023-05-28T07:18:31.824Z,480.00
2023-05-28T07:19:31.812Z,482.00
2023-05-28T07:20:31.823Z,483.00
2023-05-28T07:21:31.853Z,485.00
2023-05-28T07:22:31.814Z,486.00
2023-05-28T07:23:31.835Z,488.00
2023-05-28T07:24:31.838Z,488.00
2023-05-28T07:25:31.831Z,487.00
2023-05-28T07:26:32.324Z,488.00
2023-05-28T07:27:31.834Z,489.00
2023-05-28T07:28:31.894Z,485.00
2023-05-28T07:29:31.860Z,486.00
2023-05-28T07:30:31.866Z,484.00
2023-05-28T07:31:31.877Z,481.00
2023-05-28T07:32:31.979Z,482.00
2023-05-28T07:33:31.904Z,480.00
2023-05-28T07:34:31.898Z,477.00
2023-05-28T07:35:31.938Z,477.00
2023-05-28T07:36:31.900Z,478.00
2023-05-28T07:37:31.938Z,479.00
2023-05-28T07:38:31.939Z,479.00
2023-05-28T07:39:31.923Z,479.00
2023-05-28T07:40:31.923Z,479.00
2023-05-28T07:41:31.909Z,480.00
2023-05-28T07:42:31.930Z,482.00
2023-05-28T07:43:31.937Z,480.00
2023-05-28T07:44:31.917Z,478.00
2023-05-28T07:45:31.933Z,477.00
2023-05-28T07:46:31.962Z,479.00
2023-05-28T07:47:32.000Z,480.00
2023-05-28T07:48:31.932Z,481.00
2023-05-28T07:49:31.961Z,484.00
2023-05-28T07:50:31.943Z,485.00
2023-05-28T07:51:31.937Z,486.00
2023-05-28T07:52:31.957Z,489.00
2023-05-28T07:53:31.988Z,490.00
2023-05-28T07:54:31.997Z,488.00
2023-05-28T07:55:32.025Z,489.00
2023-05-28T07:56:31.992Z,489.00
2023-05-28T07:57:31.988Z,492.00
2023-05-28T07:58:31.987Z,494.00
2023-05-28T07:59:31.999Z,496.00
2023-05-28T08:00:31.980Z,494.00
2023-05-28T08:01:32.029Z,494.00
2023-05-28T08:02:32.143Z,493.00
2023-05-28T08:03:32.190Z,493.00
2023-05-28T08:04:32.068Z,492.00
2023-05-28T08:05:32.069Z,493.00
2023-05-28T08:06:32.044Z,491.00
2023-05-28T08:07:32.081Z,490.00
2023-05-28T08:08:32.281Z,492.00
2023-05-28T08:09:32.076Z,491.00
2023-05-28T08:10:32.089Z,491.00
2023-05-28T08:11:32.076Z,491.00
2023-05-28T08:12:32.090Z,489.00
2023-05-28T08:13:32.108Z,487.00
2023-05-28T08:14:32.100Z,485.00
2023-05-28T08:15:32.083Z,485.00
2023-05-28T08:16:32.152Z,485.00
2023-05-28T08:17:32.179Z,484.00
2023-05-28T08:18:32.129Z,484.00
2023-05-28T08:19:32.161Z,485.00
2023-05-28T08:20:32.161Z,484.00
2023-05-28T08:21:32.197Z,484.00
2023-05-28T08:22:32.180Z,485.00
2023-05-28T08:23:32.203Z,482.00
2023-05-28T08:24:32.221Z,482.00
2023-05-28T08:25:32.216Z,485.00
2023-05-28T08:26:32.348Z,486.00
2023-05-28T08:27:32.224Z,488.00
2023-05-28T08:28:32.238Z,489.00
2023-05-28T08:29:32.254Z,490.00
2023-05-28T08:30:32.273Z,490.00
2023-05-28T08:31:32.408Z,487.00
2023-05-28T08:32:32.339Z,483.00
2023-05-28T08:33:32.269Z,481.00
2023-05-28T08:34:32.284Z,481.00
2023-05-28T08:35:32.297Z,480.00
2023-05-28T08:36:32.253Z,478.00
2023-05-28T08:37:32.263Z,478.00
2023-05-28T08:38:32.289Z,478.00
2023-05-28T08:39:32.228Z,479.00
2023-05-28T08:40:32.238Z,481.00
2023-05-28T08:41:32.272Z,477.00
2023-05-28T08:42:32.238Z,476.00
2023-05-28T08:43:32.234Z,476.00
2023-05-28T08:44:32.263Z,476.00
2023-05-28T08:45:32.209Z,476.00
2023-05-28T08:46:32.264Z,479.00
2023-05-28T08:47:32.284Z,482.00
2023-05-28T08:48:32.263Z,485.00
2023-05-28T08:49:32.224Z,486.00
2023-05-28T08:50:32.234Z,487.00
2023-05-28T08:51:32.364Z,486.00
2023-05-28T08:52:32.234Z,485.00
2023-05-28T08:53:32.247Z,486.00
2023-05-28T08:54:32.283Z,485.00
2023-05-28T08:55:32.304Z,486.00
2023-05-28T08:56:32.381Z,484.00
2023-05-28T08:57:32.437Z,485.00
2023-05-28T08:58:32.266Z,486.00
2023-05-28T08:59:32.286Z,490.00
2023-05-28T09:00:32.280Z,489.00
2023-05-28T09:01:32.423Z,490.00
2023-05-28T09:02:32.295Z,491.00
2023-05-28T09:03:32.412Z,490.00
2023-05-28T09:04:32.287Z,491.00
2023-05-28T09:05:32.260Z,490.00
2023-05-28T09:06:32.331Z,489.00
2023-05-28T09:07:32.306Z,491.00
2023-05-28T09:08:32.314Z,490.00
2023-05-28T09:09:32.314Z,488.00
2023-05-28T09:10:32.321Z,489.00
2023-05-28T09:11:32.338Z,486.00
2023-05-28T09:12:32.347Z,485.00
2023-05-28T09:13:32.357Z,484.00
2023-05-28T09:14:32.361Z,484.00
2023-05-28T09:15:32.363Z,485.00
2023-05-28T09:16:32.394Z,487.00
2023-05-28T09:17:32.405Z,485.00
2023-05-28T09:18:32.380Z,485.00
2023-05-28T09:19:32.352Z,486.00
2023-05-28T09:20:32.489Z,486.00
2023-05-28T09:21:32.421Z,486.00
2023-05-28T09:22:32.428Z,485.00
2023-05-28T09:23:32.444Z,485.00
2023-05-28T09:24:32.459Z,484.00
2023-05-28T09:25:32.461Z,481.00
2023-05-28T09:26:32.472Z,482.00
2023-05-28T09:27:32.482Z,482.00
2023-05-28T09:28:32.467Z,481.00
2023-05-28T09:29:32.496Z,479.00
2023-05-28T09:30:32.552Z,480.00
2023-05-28T09:31:32.539Z,480.00
2023-05-28T09:32:32.518Z,481.00
2023-05-28T09:33:32.546Z,482.00
2023-05-28T09:34:32.556Z,482.00
2023-05-28T09:35:32.583Z,484.00
2023-05-28T09:36:32.576Z,485.00
2023-05-28T09:37:32.574Z,488.00
2023-05-28T09:38:32.581Z,489.00
2023-05-28T09:39:32.570Z,488.00
2023-05-28T09:40:32.564Z,486.00
2023-05-28T09:41:32.555Z,486.00
2023-05-28T09:42:32.590Z,487.00
2023-05-28T09:43:32.555Z,488.00
2023-05-28T09:44:32.544Z,488.00
2023-05-28T09:45:32.570Z,489.00
2023-05-28T09:46:32.949Z,488.00
2023-05-28T09:47:32.614Z,488.00
2023-05-28T09:48:32.543Z,487.00
2023-05-28T09:49:32.570Z,487.00
2023-05-28T09:50:32.582Z,486.00
2023-05-28T09:51:32.583Z,484.00
2023-05-28T09:52:32.590Z,485.00
2023-05-28T09:53:32.584Z,486.00
2023-05-28T09:54:32.600Z,486.00
2023-05-28T09:55:32.609Z,485.00
2023-05-28T09:56:34.479Z,485.00
2023-05-28T09:57:32.612Z,489.00
2023-05-28T09:58:32.588Z,489.00
2023-05-28T09:59:32.591Z,490.00
2023-05-28T10:00:32.587Z,491.00
2023-05-28T10:01:32.612Z,493.00
2023-05-28T10:02:32.670Z,495.00
2023-05-28T10:03:32.684Z,493.00
2023-05-28T10:04:32.576Z,493.00
2023-05-28T10:05:32.581Z,491.00
2023-05-28T10:06:32.590Z,490.00
2023-05-28T10:07:32.543Z,490.00
2023-05-28T10:08:32.518Z,486.00
2023-05-28T10:09:32.535Z,489.00
2023-05-28T10:10:32.492Z,490.00
2023-05-28T10:11:32.503Z,494.00
2023-05-28T10:12:32.522Z,492.00
2023-05-28T10:13:32.499Z,493.00
2023-05-28T10:14:32.484Z,494.00
2023-05-28T10:15:32.477Z,495.00
2023-05-28T10:16:32.950Z,496.00
2023-05-28T10:17:32.506Z,496.00
2023-05-28T10:18:32.455Z,495.00
2023-05-28T10:19:32.462Z,494.00
2023-05-28T10:20:32.484Z,491.00
2023-05-28T10:21:32.433Z,492.00
2023-05-28T10:22:32.414Z,491.00
2023-05-28T10:23:32.426Z,490.00
2023-05-28T10:24:32.479Z,490.00
2023-05-28T10:25:32.446Z,489.00
2023-05-28T10:26:32.423Z,490.00
2023-05-28T10:27:32.433Z,490.00
2023-05-28T10:28:32.396Z,488.00
2023-05-28T10:29:32.428Z,487.00
2023-05-28T10:30:32.381Z,488.00
2023-05-28T10:31:32.451Z,488.00
2023-05-28T10:32:32.395Z,487.00
2023-05-28T10:33:32.384Z,488.00
2023-05-28T10:34:32.372Z,488.00
2023-05-28T10:35:32.346Z,491.00
2023-05-28T10:36:32.324Z,491.00
2023-05-28T10:37:32.329Z,492.00
2023-05-28T10:38:32.324Z,492.00
2023-05-28T10:39:32.301Z,493.00
2023-05-28T10:40:32.321Z,490.00
2023-05-28T10:41:32.314Z,490.00
2023-05-28T10:42:32.283Z,489.00
2023-05-28T10:43:32.285Z,487.00
2023-05-28T10:44:32.268Z,488.00
2023-05-28T10:45:32.312Z,490.00
2023-05-28T10:46:32.341Z,490.00
2023-05-28T10:47:32.270Z,490.00
2023-05-28T10:48:32.267Z,491.00
2023-05-28T10:49:32.241Z,490.00
2023-05-28T10:50:32.255Z,489.00
2023-05-28T10:51:32.484Z,488.00
2023-05-28T10:52:32.240Z,489.00
2023-05-28T10:53:32.226Z,489.00
2023-05-28T10:54:32.191Z,488.00
2023-05-28T10:55:32.178Z,485.00
2023-05-28T10:56:32.457Z,483.00
2023-05-28T10:57:32.175Z,485.00
2023-05-28T10:58:32.169Z,486.00
2023-05-28T10:59:32.587Z,487.00
2023-05-28T11:00:32.168Z,488.00
2023-05-28T11:01:32.172Z,489.00
2023-05-28T11:02:32.161Z,490.00
2023-05-28T11:03:32.270Z,490.00
2023-05-28T11:04:32.100Z,491.00
2023-05-28T11:05:32.281Z,490.00
2023-05-28T11:06:32.124Z,487.00
2023-05-28T11:07:32.088Z,487.00
2023-05-28T11:08:32.080Z,487.00
2023-05-28T11:09:32.093Z,488.00
2023-05-28T11:10:32.618Z,490.00
2023-05-28T11:11:32.068Z,490.00
2023-05-28T11:12:32.166Z,489.00
2023-05-28T11:13:32.187Z,489.00
2023-05-28T11:14:32.225Z,490.00
2023-05-28T11:15:32.272Z,492.00
2023-05-28T11:16:32.555Z,492.00
2023-05-28T11:17:32.359Z,493.00
2023-05-28T11:18:32.415Z,494.00
2023-05-28T11:19:32.482Z,496.00
2023-05-28T11:20:32.558Z,495.00
2023-05-28T11:21:32.638Z,495.00
2023-05-28T11:22:32.630Z,494.00
2023-05-28T11:23:32.709Z,495.00
2023-05-28T11:24:32.762Z,497.00
2023-05-28T11:25:32.781Z,498.00
2023-05-28T11:26:32.867Z,499.00
2023-05-28T11:27:32.895Z,500.00
2023-05-28T11:28:32.962Z,499.00
2023-05-28T11:29:33.003Z,499.00
2023-05-28T11:30:33.087Z,497.00
2023-05-28T11:31:33.212Z,496.00
2023-05-28T11:32:33.316Z,494.00
2023-05-28T11:33:33.282Z,493.00
2023-05-28T11:34:33.290Z,496.00
2023-05-28T11:35:33.353Z,497.00
2023-05-28T11:36:33.407Z,497.00
2023-05-28T11:37:33.484Z,498.00
2023-05-28T11:38:33.533Z,495.00
2023-05-28T11:39:33.596Z,496.00
2023-05-28T11:40:33.638Z,497.00
2023-05-28T11:41:33.786Z,496.00
2023-05-28T11:42:33.767Z,498.00
2023-05-28T11:43:33.834Z,499.00
2023-05-28T11:44:33.875Z,498.00
2023-05-28T11:45:33.937Z,495.00
2023-05-28T11:46:34.059Z,494.00
2023-05-28T11:47:34.137Z,493.00
2023-05-28T11:48:34.152Z,494.00
2023-05-28T11:49:34.213Z,492.00
2023-05-28T11:50:34.326Z,491.00
2023-05-28T11:51:34.465Z,489.00
2023-05-28T11:52:34.417Z,489.00
2023-05-28T11:53:34.483Z,488.00
2023-05-28T11:54:34.515Z,488.00
2023-05-28T11:55:34.594Z,489.00
2023-05-28T11:56:34.975Z,488.00
2023-05-28T11:57:34.731Z,488.00
2023-05-28T11:58:34.789Z,488.00
2023-05-28T11:59:34.872Z,489.00
2023-05-28T12:00:35.040Z,489.00
2023-05-28T12:01:35.476Z,486.00
2023-05-28T12:02:35.133Z,485.00
2023-05-28T12:03:35.185Z,487.00
2023-05-28T12:04:35.132Z,489.00
2023-05-28T12:05:35.306Z,490.00
2023-05-28T12:06:40.237Z,490.00
2023-05-28T12:07:36.326Z,491.00
2023-05-28T12:08:35.256Z,492.00
2023-05-28T12:09:35.288Z,490.00
2023-05-28T12:10:35.285Z,491.00
2023-05-28T12:11:35.273Z,490.00
2023-05-28T12:12:35.285Z,487.00
2023-05-28T12:13:35.398Z,487.00
2023-05-28T12:14:35.402Z,486.00
2023-05-28T12:15:35.521Z,489.00
2023-05-28T12:16:35.555Z,489.00
2023-05-28T12:17:35.621Z,488.00
2023-05-28T12:18:35.664Z,488.00
2023-05-28T12:19:35.732Z,486.00
2023-05-28T12:20:35.899Z,486.00
2023-05-28T12:21:35.923Z,485.00
2023-05-28T12:22:35.975Z,486.00
2023-05-28T12:23:35.987Z,485.00
2023-05-28T12:24:36.017Z,484.00
2023-05-28T12:25:36.121Z,484.00
2023-05-28T12:26:36.179Z,482.00
2023-05-28T12:27:36.236Z,483.00
2023-05-28T12:28:36.286Z,482.00